Tiempo atmosférico en la estación meteorológica de Cabo Peñas, Asturias (100 m.)



Fecha
DESCASC
Temp. máxima en grados centígrados (hora)
DESCASC
Temp. mínima en grados centígrados (hora)
DESCASC
Temp. media en grados centígrados
DESCASC
Racha de viento máxima en m/sg (hora)
DESCASC
Velocidad máxima media en intervalos de 10 minutos(hora)
DESCASC
Precipitaciones diarias en mm
DESCASC
Precipitaciones de 00:00 a 06:00 en mm
DESCASC
Precipitaciones de 06:00 a 12:00 en mm
DESCASC
Precipitaciones de 12:00 a 18:00 en mm
DESCASC
Precipitaciones de 18:00 a 24:00 en mm
DESCASC
13-10-2019 22.7 (04:40) 14.2 (05:10) 18.5 15 (11:50) 8.06 (11:30) 2.9 0 0 1 1.9
12-10-2019 25 (22:20) 14.6 (08:50) 19.8 9.17 (23:20) 6.11 (23:10) 0 0 0 0 0
11-10-2019 20.7 (16:10) 12.1 (06:30) 16.4 7.78 (02:20) 6.39 (02:10) 0 0 0 0 0
10-10-2019 19.7 (12:40) 12.8 (00:00) 16.3 8.61 (21:10) 6.39 (21:10) 0 0 0 0 0
09-10-2019 -- (--) -- (--) -- 12.22 (03:50) 7.5 (09:00) 0 0 0 0 0
08-10-2019 -- (--) -- (--) -- 16.11 (15:00) 10.28 (15:10) 2.1 0 0 0.5 1.6
07-10-2019 -- (--) -- (--) -- 5.83 (08:20) 4.72 (08:30) 0 0 0 0 0
06-10-2019 -- (--) -- (--) -- 9.44 (10:50) 5.28 (06:30) 0 0 0 0 0
05-10-2019 -- (--) -- (--) -- 7.22 (13:10) 4.72 (15:50) 0 0 0 0 0
04-10-2019 -- (--) -- (--) -- 12.22 (02:30) 6.39 (02:30) 4.6 1.8 2.7 0.1 0
03-10-2019 23.3 (23:20) 12.1 (00:00) 17.7 5.56 (22:50) 4.44 (08:10) 0.3 0 0 0 0.3
02-10-2019 -- (--) -- (--) -- 17.22 (00:20) 10.83 (00:10) 3.5 1.3 2.1 0.1 0
01-10-2019 24.3 (01:50) 16.6 (00:00) 20.4 22.5 (18:30) 11.39 (18:50) 0.1 0 0 0 0.1
30-09-2019 24 (22:50) 15.2 (00:00) 19.6 6.67 (05:30) 4.72 (05:30) 0 0 0 0 0
29-09-2019 23.9 (17:50) 13.5 (00:00) 18.7 13.61 (18:20) 8.61 (18:20) 0 0 0 0 0
28-09-2019 20.3 (21:40) 13.9 (00:00) 17.1 8.33 (00:40) 3.89 (02:40) 0 0 0 0 0
27-09-2019 23.6 (11:50) 14.4 (00:00) 19 14.44 (07:30) 7.5 (07:30) 0.2 0 0 0.2 0
26-09-2019 21.3 (16:40) 15 (00:00) 18.1 7.5 (02:30) 5 (02:20) 0 0 0 0 0
25-09-2019 20.6 (23:40) 15.3 (00:00) 18 14.44 (20:00) 7.5 (20:10) 0 0 0 0 0
24-09-2019 22.8 (11:00) 15.9 (00:00) 19.3 19.17 (08:50) 11.67 (08:50) 0.4 0.3 0.1 0 0
23-09-2019 21.3 (23:30) 14.5 (00:00) 17.9 7.5 (21:20) 5.83 (21:20) 3.5 0 0 1.4 2.1
22-09-2019 20.1 (12:50) 14.5 (00:00) 17.3 15 (05:50) 8.61 (05:50) 0.2 0.2 0 0 0
21-09-2019 22.3 (15:10) 14.9 (00:00) 18.6 18.33 (21:40) 10.28 (21:30) 5.5 0 0 0 5.5
20-09-2019 21.6 (12:10) 15.3 (00:00) 18.5 12.78 (20:30) 8.89 (20:30) 0 0 0 0 0
19-09-2019 21.6 (12:00) 16.2 (00:00) 18.9 11.67 (15:30) 5.56 (19:40) 0 0 0 0 0
18-09-2019 -- (--) -- (--) -- -- (--) -- (--) -- -- -- 0 0
17-09-2019 -- (--) -- (--) -- -- (--) -- (--) -- -- -- -- --
16-09-2019 -- (--) -- (--) -- -- (--) -- (--) -- -- -- -- --

Gráficas

Temp. máximas Temp. mínimas Temp. medias Precipitaciones Rachas de viento máximas Velocidades máximas media en intervalos de 10 minutos

Datos horarios

Fecha y hora oficial Temperatura (ºC) Velocidad del viento (km/h) Dirección del viento Racha (km/h) Dirección de racha Precipitación (mm) Presión (hPa) Tendencia (hPa) Humedad (%)
2019-10-15 23:00:00 14.7 9 Sur 19 Sudeste 0 -- -- 83
2019-10-15 22:00:00 14.6 9 Sudeste 28 Sudeste 0.1 -- -- 84
2019-10-15 21:00:00 14.6 8 Sudeste 30 Sudoeste 0.2 -- -- 85
2019-10-15 20:00:00 15.5 21 Sudoeste 45 Sudoeste 0 -- -- 76
2019-10-15 19:00:00 17.7 22 Oeste 36 Oeste 0 -- -- 62
2019-10-15 18:00:00 18.3 17 Oeste 36 Sudoeste 0 -- -- 61
2019-10-15 17:00:00 19.3 20 Sudoeste 35 Sudoeste 0 -- -- 58
2019-10-15 16:00:00 19.2 23 Sudoeste 38 Sudoeste 0 -- -- 54
2019-10-15 15:00:00 18.7 23 Sudoeste 36 Oeste 0 -- -- 57
2019-10-15 14:00:00 19.3 15 Oeste 32 Sudoeste 0 -- -- 59
2019-10-15 13:00:00 18.5 19 Sudoeste 39 Sudoeste 0 -- -- 55
2019-10-15 12:00:00 17.1 24 Sudoeste 38 Sudoeste 0 -- -- 58
2019-10-15 11:00:00 16.2 27 Sudoeste 41 Sudoeste 0 -- -- 62
2019-10-15 10:00:00 14.8 25 Sudoeste 38 Sudoeste 0 -- -- 64
2019-10-15 09:00:00 14 25 Sudoeste 36 Sudoeste 0 -- -- 69
2019-10-15 08:00:00 13.8 27 Sudoeste 42 Sudoeste 0 -- -- 72
2019-10-15 07:00:00 13.8 30 Sudoeste 48 Sudoeste 0 -- -- 73
2019-10-15 06:00:00 13.9 32 Sudoeste 46 Sudoeste 0 -- -- 72
2019-10-15 05:00:00 13.7 32 Sudoeste 53 Sudoeste 0 -- -- 71
2019-10-15 04:00:00 13.6 31 Sudoeste 51 Sudoeste 0 -- -- 73
2019-10-15 03:00:00 13.5 30 Sudoeste 47 Sudoeste 0 -- -- 73
2019-10-15 02:00:00 13.3 29 Sudoeste 43 Sudoeste 0 -- -- 75
2019-10-15 01:00:00 12.8 24 Sudoeste 45 Sudoeste 0 -- -- 76
2019-10-15 00:00:00 13.1 25 Sudoeste 56 Oeste 0 -- -- 76
2019-10-14 23:00:00 13.2 24 Sudoeste 58 Sudoeste 0 -- -- 76
2019-10-14 22:00:00 13.6 33 Oeste 57 Oeste 0 -- -- 72
2019-10-14 21:00:00 13.5 23 Oeste 39 Oeste 0 -- -- 76
2019-10-14 20:00:00 13.6 22 Oeste 57 Norte 0 -- -- 76
2019-10-14 19:00:00 12.7 25 Noroeste 66 Oeste 0 -- -- 88
2019-10-14 18:00:00 15 34 Oeste 66 Oeste 0 -- -- 71
2019-10-14 17:00:00 14.2 35 Oeste 60 Norte 0 -- -- 78
2019-10-14 16:00:00 15 30 Oeste 58 Oeste 0 -- -- 73
2019-10-14 15:00:00 15.6 23 Oeste 41 Oeste 0 -- -- 73
2019-10-14 14:00:00 15 15 Sudoeste 35 Sudoeste 0.2 -- -- 86
2019-10-14 13:00:00 14.5 11 Sudoeste 20 Oeste 0.3 -- -- 87
2019-10-14 12:00:00 14.1 11 Oeste 21 Sudeste 0.4 -- -- 90
2019-10-14 11:00:00 13.4 16 Sudeste 24 Este 0.1 -- -- 91
2019-10-14 10:00:00 12.7 15 Sudeste 24 Sudeste 0.3 -- -- 90
2019-10-14 09:00:00 13.5 6 Sudeste 13 Sudoeste 1.2 -- -- 87
2019-10-14 08:00:00 13.5 3 Sur 14 Sudoeste 0.6 -- -- 88
2019-10-14 07:00:00 13.6 13 Sudoeste 21 Sudoeste 0 -- -- 87
2019-10-14 06:00:00 14 11 Oeste 33 Sudoeste 0 -- -- 87
2019-10-14 05:00:00 13.5 26 Oeste 51 Oeste 0 -- -- 88
2019-10-14 04:00:00 14 15 Oeste 47 Oeste 0.1 -- -- 91
2019-10-14 03:00:00 14 20 Noroeste 53 Oeste 0.3 -- -- 93
2019-10-14 02:00:00 15.5 17 Noroeste 35 Noroeste 2.7 -- -- 94
2019-10-14 01:00:00 15.8 6 Oeste 19 Este 0.8 -- -- 94
2019-10-14 00:00:00 16.1 8 Este 20 Este 0 -- -- 93
2019-10-13 23:00:00 15.7 15 Este 22 Este 0.1 -- -- 94
2019-10-13 22:00:00 15.2 7 Este 17 Este 0.1 -- -- 94
2019-10-13 21:00:00 15.6 7 Sudeste 17 Sudeste 0.1 -- -- 94
2019-10-13 20:00:00 15.1 0 Calma 13 Nordeste 1 -- -- 93
2019-10-13 19:00:00 15.8 0 Calma 12 Sudeste 0.6 -- -- 92
2019-10-13 18:00:00 15.9 4 Sudeste 12 Este 0.7 -- -- 92
2019-10-13 17:00:00 16.1 3 Norte 17 Norte 0.1 -- -- 91
2019-10-13 16:00:00 16.8 10 Noroeste 31 Noroeste 0 -- -- 90
2019-10-13 15:00:00 16.7 17 Noroeste 33 Noroeste 0 -- -- 90
2019-10-13 14:00:00 16.7 18 Noroeste 35 Noroeste 0.2 -- -- 91
2019-10-13 13:00:00 16.4 13 Noroeste 39 Noroeste 0 -- -- 91
2019-10-13 12:00:00 17.4 22 Noroeste 54 Norte 0 -- -- 91
2019-10-13 11:00:00 19.8 16 Sudoeste 48 Sudoeste 0 -- -- 71
2019-10-13 10:00:00 19.4 6 Sur 17 Sudeste 0 -- -- 72
2019-10-13 09:00:00 18.3 8 Sudeste 11 Sudeste 0 -- -- 86
2019-10-13 08:00:00 17.2 5 Sudeste 12 Sudeste 0 -- -- 91
2019-10-13 07:00:00 16.6 10 Sudeste 14 Sudeste 0 -- -- 92
2019-10-13 06:00:00 21.6 7 Sudeste 12 Sudeste 0 -- -- 92
2019-10-13 05:00:00 16.9 6 Sudeste 11 Sudeste 0 -- -- 92
2019-10-13 04:00:00 17.8 7 Sudeste 13 Sudeste 0 -- -- 92
2019-10-13 03:00:00 18.7 2 Sur 11 Sur 0 -- -- 92
2019-10-13 02:00:00 17.7 5 Sudeste 27 Sudeste 0 -- -- 92
2019-10-13 01:00:00 19.5 15 Sudeste 24 Sudeste 0 -- -- 93
2019-10-13 00:00:00 19.2 16 Este 33 Este 0 -- -- 93
2019-10-12 23:00:00 18.7 20 Este 29 Este 0 -- -- 94
2019-10-12 22:00:00 19.4 19 Este 30 Este 0 -- -- 92
2019-10-12 21:00:00 17.8 18 Este 29 Este 0 -- -- 92
2019-10-12 20:00:00 17.8 18 Este 29 Este 0 -- -- 92
2019-10-12 19:00:00 17.7 20 Este 28 Este 0 -- -- 90
2019-10-12 18:00:00 19 14 Este 24 Este 0 -- -- 88
2019-10-12 17:00:00 20.3 18 Este 24 Este 0 -- -- 85
2019-10-12 16:00:00 19.9 15 Este 21 Este 0 -- -- 86
2019-10-12 15:00:00 20.4 16 Este 21 Este 0 -- -- 83
2019-10-12 14:00:00 20.7 15 Este 22 Este 0 -- -- 76
2019-10-12 13:00:00 20.5 15 Sudeste 21 Sudeste 0 -- -- 81
2019-10-12 12:00:00 19.7 9 Este 14 Este 0 -- -- 82
2019-10-12 11:00:00 17.9 6 Sudeste 11 Este 0 -- -- 86
2019-10-12 10:00:00 16 4 Sur 11 Oeste 0 -- -- 94
2019-10-12 09:00:00 15.4 9 Oeste 11 Sudoeste 0 -- -- 92
2019-10-12 08:00:00 15.7 5 Sudeste 12 Sudeste 0 -- -- 91
2019-10-12 07:00:00 15.5 3 Sudeste 13 Sudeste 0 -- -- 91
2019-10-12 06:00:00 16.4 6 Sudeste 12 Sudeste 0 -- -- 90
2019-10-12 05:00:00 16.2 6 Sudeste 17 Este 0 -- -- 90
2019-10-12 04:00:00 17.3 8 Sudeste 15 Sudeste 0 -- -- 90
2019-10-12 03:00:00 15.1 7 Sudeste 14 Sudeste 0 -- -- 90
2019-10-12 02:00:00 16.7 3 Sur 10 Sudeste 0 -- -- 90
2019-10-12 01:00:00 17.5 6 Sudeste 10 Sudeste 0 -- -- 90
2019-10-12 00:00:00 17.8 0 Calma 4 Sudeste 0 -- -- 90
2019-10-11 23:00:00 18.4 0 Calma 6 Norte 0 -- -- 90
2019-10-11 22:00:00 16.9 2 Noroeste 13 Noroeste 0 -- -- 90
2019-10-11 21:00:00 17.1 10 Noroeste 22 Noroeste 0 -- -- 90
2019-10-11 20:00:00 17.2 12 Noroeste 27 Noroeste 0 -- -- 90
2019-10-11 19:00:00 17.2 9 Noroeste 16 Noroeste 0 -- -- 90
2019-10-11 18:00:00 19 6 Noroeste 13 Norte 0 -- -- 88
2019-10-11 17:00:00 19.4 5 Noroeste 18 Noroeste 0 -- -- 88
2019-10-11 16:00:00 17.8 7 Noroeste 21 Noroeste 0 -- -- 88
2019-10-11 15:00:00 19.5 9 Noroeste 22 Oeste 0 -- -- 88
2019-10-11 14:00:00 18.8 9 Noroeste 21 Oeste 0 -- -- 90
2019-10-11 13:00:00 19.6 12 Oeste 21 Oeste 0 -- -- 86
2019-10-11 12:00:00 17.7 13 Oeste 20 Oeste 0 -- -- 79
2019-10-11 11:00:00 17.1 13 Sudoeste 17 Sudoeste 0 -- -- 86
2019-10-11 10:00:00 15.8 12 Oeste 22 Sudoeste 0 -- -- 88
2019-10-11 09:00:00 14.9 19 Sudoeste 21 Sudoeste 0 -- -- 90
2019-10-11 08:00:00 13.7 6 Sudoeste 21 Sudoeste 0 -- -- 90
2019-10-11 07:00:00 15.1 15 Sudoeste 19 Sudoeste 0 -- -- 90
2019-10-11 06:00:00 14.3 13 Sudoeste 17 Sudoeste 0 -- -- 90
2019-10-11 05:00:00 14.2 11 Sudoeste 13 Sudoeste 0 -- -- 91
2019-10-11 04:00:00 15.8 4 Sur 20 Sudeste 0 -- -- 87
2019-10-11 03:00:00 16.1 19 Sudeste 28 Sudeste 0 -- -- 88
2019-10-11 02:00:00 15.4 19 Sudeste 24 Sudeste 0 -- -- 88
2019-10-11 01:00:00 16.7 18 Sudeste 26 Este 0 -- -- 90
2019-10-11 00:00:00 16.7 16 Este 26 Este 0 -- -- 90
2019-10-10 23:00:00 16.1 14 Sudeste 27 Este 0 -- -- 90
2019-10-10 22:00:00 16.5 22 Sudeste 31 Este 0 -- -- 87
2019-10-10 21:00:00 16.5 22 Este 30 Este 0 -- -- 87
2019-10-10 20:00:00 16.7 18 Este 25 Este 0 -- -- 87
2019-10-10 19:00:00 17.3 15 Este 23 Este 0 -- -- 83
2019-10-10 18:00:00 17.4 14 Este 22 Este 0 -- -- 82
2019-10-10 17:00:00 18.4 14 Este 22 Este 0 -- -- 76
2019-10-10 16:00:00 18.3 7 Este 17 Este 0 -- -- 76
2019-10-10 15:00:00 18.1 5 Este 15 Sudeste 0 -- -- 76
2019-10-10 14:00:00 18.7 4 Sudeste 10 Este 0 -- -- 73
2019-10-10 13:00:00 18.8 0 Calma 12 Sudoeste 0 -- -- 76
2019-10-10 12:00:00 18.2 6 Sudoeste 15 Sudoeste 0 -- -- 69
2019-10-10 11:00:00 16.7 10 Sudoeste 17 Sudoeste 0 -- -- 73
2019-10-10 10:00:00 15.7 12 Sudoeste 18 Sur 0 -- -- 79
2019-10-10 09:00:00 14 14 Sudoeste 17 Sur 0 -- -- 83
2019-10-10 08:00:00 13 13 Sudoeste 16 Sudoeste 0 -- -- 84
2019-10-10 07:00:00 13.7 12 Sudoeste 16 Sudoeste 0 -- -- 85
2019-10-10 06:00:00 13.1 10 Sur 19 Sur 0 -- -- 86
2019-10-10 05:00:00 14 15 Sudoeste 19 Sudoeste 0 -- -- 87
2019-10-10 04:00:00 13.8 15 Sudoeste 20 Sudoeste 0 -- -- 87
2019-10-10 03:00:00 14.4 15 Sudoeste 21 Sudoeste 0 -- -- 85
2019-10-10 02:00:00 14.6 15 Sudoeste 22 Sudoeste 0 -- -- 87
2019-10-10 01:00:00 14.9 15 Sudoeste 21 Sudoeste 0 -- -- 88
2019-10-10 00:00:00 15.6 15 Sudoeste 21 Sudoeste 0 -- -- 88
2019-10-09 23:00:00 15.7 13 Sudoeste 22 Oeste 0 -- -- 88
2019-10-09 22:00:00 16 11 Oeste 22 Noroeste 0 -- -- 81
2019-10-09 21:00:00 16.5 13 Noroeste 28 Noroeste 0 -- -- 82
2019-10-09 20:00:00 16.7 13 Noroeste 26 Noroeste 0 -- -- 83
2019-10-09 19:00:00 17.2 9 Noroeste 26 Oeste 0 -- -- 76
2019-10-09 18:00:00 17.5 10 Noroeste 38 Norte 0 -- -- 76
2019-10-09 17:00:00 17.5 15 Noroeste 44 Noroeste 0 -- -- 76
2019-10-09 16:00:00 17.4 16 Noroeste 36 Noroeste 0 -- -- 74
2019-10-09 15:00:00 17.3 19 Noroeste 40 Noroeste 0 -- -- 74
2019-10-09 14:00:00 17.8 14 Noroeste 34 Oeste 0 -- -- 67
2019-10-09 13:00:00 18.8 15 Sudoeste 30 Sudoeste 0 -- -- 67
2019-10-09 12:00:00 17.3 23 Sudoeste 38 Sudoeste 0 -- -- 71
2019-10-09 11:00:00 15.8 20 Sudoeste 41 Oeste 0 -- -- 76
2019-10-09 10:00:00 15.5 22 Sudoeste 37 Sudoeste 0 -- -- 76
2019-10-09 09:00:00 15 27 Sudoeste 37 Sudoeste 0 -- -- 81
2019-10-09 08:00:00 14.7 21 Sudoeste 29 Sudoeste 0 -- -- 82
2019-10-09 07:00:00 14.8 21 Sudoeste 34 Sudoeste 0 -- -- 83
2019-10-09 06:00:00 15.2 17 Oeste 41 Oeste 0 -- -- 83
2019-10-09 05:00:00 15.4 21 Oeste 42 Oeste 0 -- -- 83
2019-10-09 04:00:00 15.9 25 Oeste 44 Oeste 0 -- -- 84
2019-10-09 03:00:00 15.4 21 Sudoeste 31 Sudoeste 0 -- -- 90
2019-10-09 02:00:00 15.5 15 Sudoeste 23 Sudoeste 0 -- -- 90
2019-10-09 01:00:00 15.3 14 Sudoeste 20 Sudoeste 0 -- -- 91
2019-10-09 00:00:00 15.2 13 Sudoeste 22 Sudoeste 0.1 -- -- 91
2019-10-08 23:00:00 14.2 15 Sudoeste 19 Sudoeste 0 -- -- 92
2019-10-08 22:00:00 16.6 14 Sudoeste 21 Sudoeste 0.1 -- -- 92
2019-10-08 21:00:00 16.6 12 Oeste 27 Noroeste 0.2 -- -- 92
2019-10-08 20:00:00 16 14 Sudoeste 24 Sudoeste 0.3 -- -- 93
2019-10-08 19:00:00 16.8 11 Noroeste 26 Noroeste 0.9 -- -- 93
2019-10-08 18:00:00 14.2 14 Oeste 25 Sudoeste 0.2 -- -- 92
2019-10-08 17:00:00 18 16 Oeste 30 Oeste 0.2 -- -- 92
2019-10-08 16:00:00 17.3 13 Noroeste 53 Noroeste 0 -- -- 93
2019-10-08 15:00:00 14.8 36 Noroeste 58 Noroeste 0.1 -- -- 93
2019-10-08 14:00:00 18 24 Noroeste 53 Norte 0 -- -- 93
2019-10-08 13:00:00 18.8 24 Noroeste 42 Noroeste 0 -- -- 94
2019-10-08 12:00:00 21.5 14 Oeste 26 Sudoeste 0 -- -- 73
2019-10-08 11:00:00 22.1 19 Sudoeste 27 Sudoeste 0 -- -- 66
2019-10-08 10:00:00 20.6 21 Sudoeste 31 Sudoeste 0 -- -- 75
2019-10-08 09:00:00 19.8 17 Sudoeste 37 Sur 0 -- -- 81
2019-10-08 08:00:00 18 11 Sur 20 Sur 0 -- -- 81
2019-10-08 07:00:00 18 12 Sudoeste 19 Sudoeste 0 -- -- 81
2019-10-08 06:00:00 18.4 15 Sudoeste 19 Sudoeste 0 -- -- 76
2019-10-08 05:00:00 18.1 15 Sudoeste 19 Sur 0 -- -- 76
2019-10-08 04:00:00 18.3 11 Sur 19 Sudoeste 0 -- -- 76
2019-10-08 03:00:00 18.3 6 Sur 13 Sudoeste 0 -- -- 79
2019-10-08 02:00:00 18.7 5 Sur 9 Sur 0 -- -- 79
2019-10-08 01:00:00 19.1 6 Sudeste 9 Sudeste 0 -- -- 81
2019-10-08 00:00:00 18.1 5 Sudeste 6 Sudeste 0 -- -- 88
2019-10-07 23:00:00 19 0 Calma 4 Sur 0 -- -- 83
2019-10-07 22:00:00 19.7 3 Sur 7 Sudeste 0 -- -- 76
2019-10-07 21:00:00 18.7 6 Sudeste 12 Sudeste 0 -- -- 89
2019-10-07 20:00:00 19.2 8 Sudeste 9 Sudeste 0 -- -- 91
2019-10-07 19:00:00 18.4 6 Este 9 Sudeste 0 -- -- 87
2019-10-07 18:00:00 19.6 6 Sudeste 9 Sudeste 0 -- -- 86
2019-10-07 17:00:00 20.1 5 Noroeste 9 Noroeste 0 -- -- 82
2019-10-07 16:00:00 19.9 4 Noroeste 11 Noroeste 0 -- -- 86
2019-10-07 15:00:00 19.1 8 Noroeste 13 Norte 0 -- -- 86
2019-10-07 14:00:00 19 8 Noroeste 13 Noroeste 0 -- -- 82
2019-10-07 13:00:00 19.5 7 Noroeste 14 Oeste 0 -- -- 71
2019-10-07 12:00:00 19.3 11 Oeste 18 Sudoeste 0 -- -- 74
2019-10-07 11:00:00 17.3 13 Sudoeste 18 Sudoeste 0 -- -- 83
2019-10-07 10:00:00 15.7 13 Sudoeste 18 Sudoeste 0 -- -- 91
2019-10-07 09:00:00 16.7 14 Sudoeste 21 Sudoeste 0 -- -- 92
2019-10-07 08:00:00 12.8 13 Sudoeste 16 Sudoeste 0 -- -- 92
2019-10-07 07:00:00 16 11 Sudoeste 15 Sudoeste 0 -- -- 91
2019-10-07 06:00:00 16.3 4 Sudeste 16 Sudeste 0 -- -- 90
2019-10-07 05:00:00 16 13 Sudeste 16 Sudeste 0 -- -- 88
2019-10-07 04:00:00 15.8 13 Sudeste 17 Sudeste 0 -- -- 89
2019-10-07 03:00:00 16.4 9 Sudeste 13 Sudeste 0 -- -- 88
2019-10-07 02:00:00 16.1 11 Sudeste 14 Sudeste 0 -- -- 88
2019-10-07 01:00:00 16.4 12 Sudeste 13 Sudeste 0 -- -- 86
2019-10-07 00:00:00 16.5 12 Sudeste 13 Sudeste 0 -- -- 85
2019-10-06 23:00:00 16.5 10 Sudeste 13 Sudeste 0 -- -- 83
2019-10-06 22:00:00 16.2 3 Sudeste 5 Este 0 -- -- 83
2019-10-06 21:00:00 16.6 3 Sudeste 10 Este 0 -- -- 82
2019-10-06 20:00:00 16.8 2 Sur 7 Sur 0 -- -- 81
2019-10-06 19:00:00 17.7 0 Calma 9 Sudeste 0 -- -- 76
2019-10-06 18:00:00 19.5 3 Sudeste 12 Sudoeste 0 -- -- 76
2019-10-06 17:00:00 20 3 Sudeste 14 Noroeste 0 -- -- 76
2019-10-06 16:00:00 19.2 3 Noroeste 19 Noroeste 0 -- -- 81
2019-10-06 15:00:00 18.1 4 Norte 20 Norte 0 -- -- 84
2019-10-06 14:00:00 18.3 7 Noroeste 24 Oeste 0 -- -- 88
2019-10-06 13:00:00 17.5 13 Oeste 23 Oeste 0 -- -- 91
2019-10-06 12:00:00 17.5 14 Oeste 27 Oeste 0 -- -- 91
2019-10-06 11:00:00 16.1 19 Oeste 34 Oeste 0 -- -- 92
2019-10-06 10:00:00 18.6 13 Oeste 26 Oeste 0 -- -- 92
2019-10-06 09:00:00 18.3 11 Sudoeste 20 Oeste 0 -- -- 93
2019-10-06 08:00:00 17.8 14 Sudoeste 28 Oeste 0 -- -- 94
2019-10-06 07:00:00 18.2 19 Oeste 32 Oeste 0 -- -- 94
2019-10-06 06:00:00 19.5 14 Sudoeste 19 Oeste 0 -- -- 92
2019-10-06 05:00:00 16.8 13 Sudoeste 26 Noroeste 0 -- -- 92
2019-10-06 04:00:00 16.1 13 Oeste 31 Sudoeste 0 -- -- 88
2019-10-06 03:00:00 15.6 13 Sudoeste 18 Sudoeste 0 -- -- 87
2019-10-06 02:00:00 16.7 15 Sudoeste 19 Sudoeste 0 -- -- 86
2019-10-06 01:00:00 15.9 12 Sudoeste 16 Sur 0 -- -- 87
2019-10-06 00:00:00 16 14 Sudoeste 17 Sudoeste 0 -- -- 86
2019-10-05 23:00:00 16.5 12 Sudoeste 19 Sudoeste 0 -- -- 83
2019-10-05 22:00:00 16.9 8 Oeste 25 Noroeste 0 -- -- 82
2019-10-05 21:00:00 17.4 7 Noroeste 13 Noroeste 0 -- -- 83
2019-10-05 20:00:00 17.2 5 Noroeste 14 Noroeste 0 -- -- 82
2019-10-05 19:00:00 17.1 8 Noroeste 20 Norte 0 -- -- 82
2019-10-05 18:00:00 17.8 12 Noroeste 22 Noroeste 0 -- -- 82
2019-10-05 17:00:00 17.8 13 Noroeste 22 Noroeste 0 -- -- 83
2019-10-05 16:00:00 17.6 14 Noroeste 24 Norte 0 -- -- 83
2019-10-05 15:00:00 19.3 9 Noroeste 23 Oeste 0 -- -- 84
2019-10-05 14:00:00 19.6 13 Oeste 26 Sudoeste 0 -- -- 82
2019-10-05 13:00:00 18.3 15 Oeste 25 Oeste 0 -- -- 86
2019-10-05 12:00:00 19 13 Oeste 25 Oeste 0 -- -- 89
2019-10-05 11:00:00 17.2 6 Oeste 11 Sudoeste 0 -- -- 89
2019-10-05 10:00:00 16 7 Sudoeste 9 Sudoeste 0 -- -- 87
2019-10-05 09:00:00 16.3 2 Sudeste 9 Sudeste 0 -- -- 86
2019-10-05 08:00:00 15.6 5 Sudeste 15 Sudeste 0 -- -- 84
2019-10-05 07:00:00 15.7 7 Sudeste 13 Sudeste 0 -- -- 86
2019-10-05 06:00:00 15.8 4 Sur 9 Sur 0 -- -- 87
2019-10-05 05:00:00 16.1 4 Sur 6 Sudoeste 0 -- -- 86
2019-10-05 04:00:00 16 3 Sur 9 Sudeste 0 -- -- 86
2019-10-05 03:00:00 16.5 6 Sudeste 9 Sudeste 0 -- -- 84
2019-10-05 02:00:00 16.8 3 Sudeste 7 Sudeste 0 -- -- 83
2019-10-05 01:00:00 16.8 5 Sudeste 7 Sudeste 0 -- -- 82
2019-10-05 00:00:00 16.9 3 Sudeste 5 Sudeste 0 -- -- 83
2019-10-04 23:00:00 16.9 0 Calma 5 Sur 0 -- -- 84
2019-10-04 22:00:00 16.9 0 Calma 4 Sur 0 -- -- 84
2019-10-04 21:00:00 16.9 2 Oeste 9 Noroeste 0 -- -- 82
2019-10-04 20:00:00 17.2 6 Noroeste 13 Noroeste 0 -- -- 81
2019-10-04 19:00:00 17.2 7 Noroeste 15 Noroeste 0 -- -- 76
2019-10-04 18:00:00 17.8 5 Noroeste 16 Oeste 0 -- -- 76
2019-10-04 17:00:00 17.9 7 Noroeste 20 Noroeste 0 -- -- 76
2019-10-04 16:00:00 17.8 12 Noroeste 28 Noroeste 0 -- -- 81
2019-10-04 15:00:00 17.3 10 Noroeste 24 Oeste 0 -- -- 85
2019-10-04 14:00:00 17.2 10 Noroeste 20 Noroeste 0 -- -- 87
2019-10-04 13:00:00 16.2 10 Oeste 18 Sudoeste 0.1 -- -- 91
2019-10-04 12:00:00 -- 12 Oeste 27 Norte 0.5 -- -- 92
2019-10-04 11:00:00 16.9 10 Noroeste 26 Noroeste 0.2 -- -- 94
2019-10-04 10:00:00 -- 12 Noroeste 32 Noroeste 1 -- -- 94
2019-10-04 09:00:00 20.9 11 Noroeste 32 Noroeste 0.8 -- -- 94
2019-10-04 08:00:00 16.4 14 Oeste 26 Sudoeste 0.1 -- -- 94
2019-10-04 07:00:00 17.9 10 Noroeste 33 Oeste 0.1 -- -- 94
2019-10-04 06:00:00 15.4 18 Oeste 32 Oeste 0.1 -- -- 94
2019-10-04 05:00:00 15.3 15 Oeste 27 Oeste 0.1 -- -- 94
2019-10-04 04:00:00 -- 18 Noroeste 31 Noroeste 0.3 -- -- 93
2019-10-04 03:00:00 19 18 Noroeste 44 Norte 0.8 -- -- 94
2019-10-04 02:00:00 20.3 15 Noroeste 32 Norte 0.3 -- -- 94
2019-10-04 01:00:00 17.5 9 Sudoeste 16 Sudoeste 0.2 -- -- 93
2019-10-04 00:00:00 21.7 11 Sudoeste 18 Oeste 0.3 -- -- 93
2019-10-03 23:00:00 19.3 9 Noroeste 20 Noroeste 0 -- -- 91
2019-10-03 22:00:00 19.6 8 Sudoeste 16 Oeste 0 -- -- 87
2019-10-03 21:00:00 19.7 2 Sur 7 Oeste 0 -- -- 82
2019-10-03 20:00:00 19.9 3 Norte 9 Noroeste 0 -- -- 76
2019-10-03 19:00:00 20.2 4 Oeste 10 Sudeste 0 -- -- 74
2019-10-03 18:00:00 19.9 8 Sudeste 14 Sudeste 0 -- -- 81
2019-10-03 17:00:00 20.6 8 Este 16 Este 0 -- -- 73
2019-10-03 16:00:00 19.9 4 Nordeste 13 Oeste 0 -- -- 73
2019-10-03 15:00:00 20.3 5 Noroeste 14 Oeste 0 -- -- 61
2019-10-03 14:00:00 19.3 6 Oeste 12 Noroeste 0 -- -- 71
2019-10-03 13:00:00 19.4 6 Oeste 14 Oeste 0 -- -- 66
2019-10-03 12:00:00 19.4 9 Oeste 15 Sur 0 -- -- 68
2019-10-03 11:00:00 17.7 10 Sudoeste 14 Sudoeste 0 -- -- 76
2019-10-03 10:00:00 16.2 9 Sur 17 Sudoeste 0 -- -- 88
2019-10-03 09:00:00 16 15 Sudoeste 19 Sudoeste 0 -- -- 91
2019-10-03 08:00:00 15.5 15 Sudoeste 18 Sudoeste 0 -- -- 91
2019-10-03 07:00:00 16.6 11 Sudoeste 16 Sudoeste 0 -- -- 90
2019-10-03 06:00:00 15.7 10 Sudoeste 13 Sur 0 -- -- 90
2019-10-03 05:00:00 16.1 5 Sudeste 17 Sudeste 0 -- -- 90
2019-10-03 04:00:00 16.8 11 Sudeste 17 Este 0 -- -- 91
2019-10-03 03:00:00 16.9 9 Sudeste 16 Este 0 -- -- 91
2019-10-03 02:00:00 17.4 11 Este 17 Este 0 -- -- 91
2019-10-03 01:00:00 15.6 12 Este 16 Este 0 -- -- 91
2019-10-03 00:00:00 17.1 11 Este 17 Este 0 -- -- 90
2019-10-02 23:00:00 17.1 11 Este 17 Este 0 -- -- 91
2019-10-02 22:00:00 17.3 9 Este 14 Este 0 -- -- 91
2019-10-02 21:00:00 16.6 7 Este 11 Este 0 -- -- 91
2019-10-02 20:00:00 17.1 3 Este 13 Este 0 -- -- 89
2019-10-02 19:00:00 18.8 3 Sur 28 Noroeste 0 -- -- 85
2019-10-02 18:00:00 17.8 17 Noroeste 30 Noroeste 0 -- -- 87
2019-10-02 17:00:00 18 17 Noroeste 35 Noroeste 0 -- -- 87
2019-10-02 16:00:00 17.5 13 Noroeste 31 Noroeste 0 -- -- 83
2019-10-02 15:00:00 17.9 12 Oeste 34 Oeste 0 -- -- 81
2019-10-02 14:00:00 17.6 19 Oeste 48 Oeste 0.1 -- -- 83
2019-10-02 13:00:00 19.5 18 Oeste 40 Oeste 0 -- -- 87
2019-10-02 12:00:00 16.8 25 Oeste 43 Oeste 0 -- -- 90
2019-10-02 11:00:00 17.6 18 Oeste 41 Oeste 0 -- -- 82
2019-10-02 10:00:00 16.3 27 Oeste 45 Oeste 0 -- -- 90
2019-10-02 09:00:00 15 19 Sudoeste 37 Sudoeste 0 -- -- 90
2019-10-02 08:00:00 16.2 21 Oeste 39 Oeste 0.2 -- -- 92
2019-10-02 07:00:00 16.8 29 Oeste 48 Oeste 1.9 -- -- 93
2019-10-02 06:00:00 16 35 Oeste 58 Oeste 1.2 -- -- 93
2019-10-02 05:00:00 15 26 Noroeste 60 Noroeste 0.1 -- -- 92
2019-10-02 04:00:00 17.2 33 Oeste 57 Oeste 0 -- -- 76
2019-10-02 03:00:00 17.3 21 Oeste 60 Oeste 0 -- -- 76
2019-10-02 02:00:00 18.1 22 Oeste 47 Oeste 0 -- -- 69
2019-10-02 01:00:00 16.9 31 Oeste 62 Oeste 0 -- -- 76
2019-10-02 00:00:00 17.7 36 Oeste 75 Oeste 0 -- -- 71
2019-10-01 23:00:00 17.7 23 Noroeste 66 Oeste 0 -- -- 76
2019-10-01 22:00:00 18.4 27 Oeste 65 Oeste 0 -- -- 74
2019-10-01 21:00:00 18.2 35 Noroeste 72 Noroeste 0 -- -- 81
2019-10-01 20:00:00 18.2 33 Noroeste 76 Noroeste 0 -- -- 82
2019-10-01 19:00:00 18.7 40 Noroeste 81 Noroeste 0.1 -- -- 82
2019-10-01 18:00:00 18.8 35 Noroeste 68 Noroeste 0 -- -- 84
2019-10-01 17:00:00 19.6 39 Noroeste 76 Noroeste 0 -- -- 81
2019-10-01 16:00:00 19.4 35 Noroeste 62 Noroeste 0 -- -- 79
2019-10-01 15:00:00 19.8 30 Noroeste 59 Noroeste 0 -- -- 81
2019-10-01 14:00:00 19.8 26 Noroeste 56 Noroeste 0 -- -- 79
2019-10-01 13:00:00 19.7 23 Noroeste 47 Noroeste 0 -- -- 84
2019-10-01 12:00:00 19.7 15 Noroeste 41 Oeste 0 -- -- 84
2019-10-01 11:00:00 19.9 22 Oeste 41 Sudoeste 0 -- -- 79
2019-10-01 10:00:00 20 23 Oeste 38 Noroeste 0 -- -- 73
2019-10-01 09:00:00 18.6 15 Oeste 27 Oeste 0 -- -- 87
2019-10-01 08:00:00 18.5 11 Oeste 19 Sudoeste 0 -- -- 88
2019-10-01 07:00:00 19.1 10 Oeste 19 Sudoeste 0 -- -- 91
2019-10-01 06:00:00 19.8 9 Sudoeste 13 Sudoeste 0 -- -- 92
2019-10-01 05:00:00 20.7 6 Sur 14 Sudoeste 0 -- -- 92
2019-10-01 04:00:00 19.7 8 Sudoeste 13 Sudoeste 0 -- -- 92
2019-10-01 03:00:00 19.4 4 Oeste 9 Sudoeste 0 -- -- 92
2019-10-01 02:00:00 20.3 5 Sudoeste 8 Sudoeste 0 -- -- 92
2019-10-01 01:00:00 20 3 Sudeste 7 Sudeste 0 -- -- 92
2019-10-01 00:00:00 21.9 4 Sudeste 7 Este 0 -- -- 92
2019-09-30 23:00:00 20.1 4 Este 7 Este 0 -- -- 92
2019-09-30 22:00:00 20.8 0 Calma 10 Noroeste 0 -- -- 92
2019-09-30 21:00:00 20.8 2 Sur 20 Noroeste 0 -- -- 92
2019-09-30 20:00:00 21 6 Este 13 Sudeste 0 -- -- 83
2019-09-30 19:00:00 21.5 9 Sudeste 18 Sudeste 0 -- -- 81
2019-09-30 18:00:00 22.2 15 Sudeste 20 Sudeste 0 -- -- 76
2019-09-30 17:00:00 22.5 10 Sudeste 17 Este 0 -- -- 75
2019-09-30 16:00:00 23.5 11 Sudeste 18 Este 0 -- -- 72
2019-09-30 15:00:00 22.8 11 Este 19 Este 0 -- -- 74
2019-09-30 14:00:00 22.5 14 Sudeste 22 Este 0 -- -- 76
2019-09-30 13:00:00 23.4 13 Sudeste 17 Sudeste 0 -- -- 72
2019-09-30 12:00:00 23.5 10 Sudeste 16 Este 0 -- -- 72
2019-09-30 11:00:00 21.7 3 Este 13 Sudeste 0 -- -- 81
2019-09-30 10:00:00 18.2 8 Sudeste 14 Sudeste 0 -- -- 91
2019-09-30 09:00:00 18.6 9 Sudeste 13 Sudeste 0 -- -- 92
2019-09-30 08:00:00 18.1 13 Sudeste 16 Sudeste 0 -- -- 92
2019-09-30 07:00:00 17.6 14 Sudeste 20 Sudeste 0 -- -- 92
2019-09-30 06:00:00 19.3 15 Sudeste 24 Sudeste 0 -- -- 92
2019-09-30 05:00:00 17.8 15 Sudeste 19 Sudeste 0 -- -- 92
2019-09-30 04:00:00 17.8 11 Sudeste 14 Sudeste 0 -- -- 91
2019-09-30 03:00:00 19.1 3 Sudeste 6 Sur 0 -- -- 91
2019-09-30 02:00:00 17.5 3 Sur 10 Sudoeste 0 -- -- 91
2019-09-30 01:00:00 20.7 8 Sudoeste 12 Sudoeste 0 -- -- 92
2019-09-30 00:00:00 19.3 10 Oeste 15 Sudoeste 0 -- -- 92
2019-09-29 23:00:00 19.1 12 Sudoeste 17 Oeste 0 -- -- 92
2019-09-29 22:00:00 18.7 10 Sudoeste 32 Noroeste 0 -- -- 92
2019-09-29 21:00:00 20.6 14 Noroeste 34 Noroeste 0 -- -- 92
2019-09-29 20:00:00 19.9 20 Noroeste 44 Noroeste 0 -- -- 93
2019-09-29 19:00:00 21.5 22 Noroeste 49 Noroeste 0 -- -- 93
2019-09-29 18:00:00 21.4 28 Noroeste 45 Noroeste 0 -- -- 93
2019-09-29 17:00:00 22.6 19 Noroeste 45 Noroeste 0 -- -- 82
2019-09-29 16:00:00 21.9 15 Noroeste 34 Noroeste 0 -- -- 82
2019-09-29 15:00:00 21.9 12 Oeste 24 Oeste 0 -- -- 76
2019-09-29 14:00:00 22.7 13 Oeste 22 Oeste 0 -- -- 69
2019-09-29 13:00:00 22 5 Oeste 23 Sudoeste 0 -- -- 60
2019-09-29 12:00:00 22.4 5 Oeste 20 Sudoeste 0 -- -- 55
2019-09-29 11:00:00 21.2 8 Sur 22 Sudoeste 0 -- -- 59
2019-09-29 10:00:00 19.2 16 Sudoeste 23 Oeste 0 -- -- 67
2019-09-29 09:00:00 18 12 Oeste 18 Oeste 0 -- -- 70
2019-09-29 08:00:00 18.2 13 Sudoeste 19 Sudoeste 0 -- -- 48
2019-09-29 07:00:00 18.5 18 Sudoeste 27 Sudoeste 0 -- -- 50
2019-09-29 06:00:00 16.2 13 Sudoeste 20 Sudoeste 0 -- -- 71
2019-09-29 05:00:00 15.9 10 Sur 17 Sur 0 -- -- 82
2019-09-29 04:00:00 15.4 9 Sudoeste 17 Sudoeste 0 -- -- 91
2019-09-29 03:00:00 18 13 Sudoeste 16 Sudoeste 0 -- -- 91
2019-09-29 02:00:00 14.6 13 Sudoeste 16 Oeste 0 -- -- 92
2019-09-29 01:00:00 16.6 7 Sudoeste 12 Sur 0 -- -- 91
2019-09-29 00:00:00 14.9 9 Sudoeste 11 Sudeste 0 -- -- 92
2019-09-28 23:00:00 17.9 7 Sudeste 10 Sudeste 0 -- -- 90
2019-09-28 22:00:00 16.8 3 Este 8 Este 0 -- -- 90
2019-09-28 21:00:00 16.4 5 Este 12 Este 0 -- -- 90
2019-09-28 20:00:00 16.8 8 Este 14 Sudeste 0 -- -- 87
2019-09-28 19:00:00 18.3 8 Este 13 Este 0 -- -- 81
2019-09-28 18:00:00 18.7 10 Este 17 Este 0 -- -- 76
2019-09-28 17:00:00 18.6 12 Este 21 Este 0 -- -- 76
2019-09-28 16:00:00 19.6 12 Este 20 Sudeste 0 -- -- 75
2019-09-28 15:00:00 18.8 4 Este 13 Nordeste 0 -- -- 74
2019-09-28 14:00:00 19.4 0 Calma 10 Nordeste 0 -- -- 74
2019-09-28 13:00:00 17.9 3 Noroeste 11 Oeste 0 -- -- 76
2019-09-28 12:00:00 17.4 6 Oeste 11 Oeste 0 -- -- 76
2019-09-28 11:00:00 17 7 Oeste 11 Oeste 0 -- -- 75
2019-09-28 10:00:00 16.2 7 Sudoeste 13 Sudoeste 0 -- -- 79
2019-09-28 09:00:00 14.3 11 Oeste 13 Oeste 0 -- -- 83
2019-09-28 08:00:00 14.5 10 Sudoeste 15 Oeste 0 -- -- 83
2019-09-28 07:00:00 16 11 Sudoeste 12 Sudoeste 0 -- -- 81
2019-09-28 06:00:00 15.7 9 Sudoeste 16 Sudoeste 0 -- -- 86
2019-09-28 05:00:00 15.6 10 Oeste 18 Oeste 0 -- -- 81
2019-09-28 04:00:00 15.9 10 Sudoeste 20 Oeste 0 -- -- 88
2019-09-28 03:00:00 17 12 Oeste 25 Oeste 0 -- -- 85
2019-09-28 02:00:00 16.8 10 Oeste 29 Oeste 0 -- -- 76
2019-09-28 01:00:00 17.2 13 Oeste 30 Oeste 0 -- -- 88
2019-09-28 00:00:00 18.8 14 Oeste 32 Oeste 0 -- -- 81
2019-09-27 23:00:00 17.4 12 Noroeste 32 Oeste 0 -- -- 81
2019-09-27 22:00:00 17.8 9 Oeste 31 Oeste 0 -- -- 87
2019-09-27 21:00:00 17.9 15 Oeste 41 Oeste 0 -- -- 86
2019-09-27 20:00:00 18.5 15 Noroeste 36 Noroeste 0 -- -- 83
2019-09-27 19:00:00 19 18 Noroeste 37 Noroeste 0 -- -- 79
2019-09-27 18:00:00 18 14 Noroeste 30 Oeste 0 -- -- 86
2019-09-27 17:00:00 18 14 Oeste 35 Oeste 0 -- -- 88
2019-09-27 16:00:00 18.5 17 Oeste 41 Oeste 0 -- -- 86
2019-09-27 15:00:00 17.5 14 Noroeste 40 Noroeste 0 -- -- 88
2019-09-27 14:00:00 18.2 11 Noroeste 32 Noroeste 0 -- -- 93
2019-09-27 13:00:00 19.7 12 Noroeste 27 Oeste 0.2 -- -- 94
2019-09-27 12:00:00 18.6 4 Noroeste 14 Sudoeste 0 -- -- 90
2019-09-27 11:00:00 18.2 11 Oeste 24 Oeste 0 -- -- 91
2019-09-27 10:00:00 18.2 12 Sudoeste 22 Oeste 0 -- -- 90
2019-09-27 09:00:00 18.9 11 Noroeste 39 Noroeste 0 -- -- 92
2019-09-27 08:00:00 18 22 Noroeste 52 Noroeste 0 -- -- 93
2019-09-27 07:00:00 19.3 13 Oeste 29 Oeste 0 -- -- 76
2019-09-27 06:00:00 19.5 15 Sudoeste 22 Sudoeste 0 -- -- 66
2019-09-27 05:00:00 18.9 11 Sudoeste 23 Sur 0 -- -- 73
2019-09-27 04:00:00 19.2 16 Sudoeste 27 Sudoeste 0 -- -- 67
2019-09-27 03:00:00 19 19 Sudoeste 26 Sudoeste 0 -- -- 69
2019-09-27 02:00:00 18.7 20 Sudoeste 30 Sudoeste 0 -- -- 71
2019-09-27 01:00:00 16.9 13 Sur 22 Sur 0 -- -- 83
2019-09-27 00:00:00 17.8 14 Sudoeste 21 Sudoeste 0 -- -- 81
2019-09-26 23:00:00 17.5 12 Sudoeste 18 Sur 0 -- -- 83
2019-09-26 22:00:00 17.7 4 Sudeste 15 Sudeste 0 -- -- 83
2019-09-26 21:00:00 17.9 4 Sur 9 Sur 0 -- -- 85
2019-09-26 20:00:00 19.6 2 Oeste 4 Oeste 0 -- -- 76
2019-09-26 19:00:00 19.8 3 Nordeste 8 Nordeste 0 -- -- 73
2019-09-26 18:00:00 19.8 4 Nordeste 11 Este 0 -- -- 72
2019-09-26 17:00:00 21.1 6 Este 10 Este 0 -- -- 58
2019-09-26 16:00:00 20.3 3 Norte 9 Norte 0 -- -- 64
2019-09-26 15:00:00 20 4 Norte 12 Norte 0 -- -- 73
2019-09-26 14:00:00 19.4 5 Norte 13 Noroeste 0 -- -- 67
2019-09-26 13:00:00 19.7 5 Noroeste 16 Oeste 0 -- -- 59
2019-09-26 12:00:00 19.7 10 Oeste 14 Oeste 0 -- -- 67
2019-09-26 11:00:00 18.6 8 Sudoeste 18 Sur 0 -- -- 82
2019-09-26 10:00:00 17.7 9 Sur 18 Sudoeste 0 -- -- 82
2019-09-26 09:00:00 15.7 12 Sur 19 Oeste 0 -- -- 86
2019-09-26 08:00:00 15.6 16 Sudoeste 21 Sudoeste 0 -- -- 82
2019-09-26 07:00:00 15.6 13 Sudoeste 19 Sudoeste 0 -- -- 86
2019-09-26 06:00:00 15.7 14 Sudoeste 24 Sudoeste 0 -- -- 86
2019-09-26 05:00:00 16.1 14 Oeste 26 Oeste 0 -- -- 87
2019-09-26 04:00:00 15.9 13 Oeste 24 Sudoeste 0 -- -- 83
2019-09-26 03:00:00 16.3 15 Oeste 27 Sudoeste 0 -- -- 87
2019-09-26 02:00:00 17.4 17 Sudoeste 26 Oeste 0 -- -- 89
2019-09-26 01:00:00 18.1 15 Sudoeste 24 Oeste 0 -- -- 87
2019-09-26 00:00:00 17.2 13 Oeste 23 Oeste 0 -- -- 90
2019-09-25 23:00:00 17.2 14 Oeste 27 Oeste 0 -- -- 91
2019-09-25 22:00:00 18.4 17 Oeste 30 Noroeste 0 -- -- 91
2019-09-25 21:00:00 18 14 Oeste 46 Noroeste 0 -- -- 91
2019-09-25 20:00:00 17.8 26 Noroeste 52 Noroeste 0 -- -- 88
2019-09-25 19:00:00 18.9 23 Noroeste 47 Noroeste 0 -- -- 84
2019-09-25 18:00:00 19.1 22 Noroeste 49 Noroeste 0 -- -- 76
2019-09-25 17:00:00 18.9 17 Noroeste 39 Noroeste 0 -- -- 79
2019-09-25 16:00:00 18.8 16 Noroeste 36 Oeste 0 -- -- 81
2019-09-25 15:00:00 19 11 Noroeste 36 Oeste 0 -- -- 79
2019-09-25 14:00:00 18.6 13 Noroeste 34 Oeste 0 -- -- 81
2019-09-25 13:00:00 18.8 15 Oeste 42 Oeste 0 -- -- 82
2019-09-25 12:00:00 19.3 18 Oeste 27 Oeste 0 -- -- 74
2019-09-25 11:00:00 18.6 16 Oeste 33 Sudoeste 0 -- -- 68
2019-09-25 10:00:00 17.5 23 Sudoeste 33 Sudoeste 0 -- -- 71
2019-09-25 09:00:00 16.4 19 Sudoeste 28 Sudoeste 0 -- -- 76
2019-09-25 08:00:00 15.7 14 Oeste 30 Oeste 0 -- -- 83
2019-09-25 07:00:00 16.3 16 Oeste 26 Oeste 0 -- -- 79
2019-09-25 06:00:00 16.4 14 Sudoeste 26 Oeste 0 -- -- 76
2019-09-25 05:00:00 16.4 17 Sudoeste 43 Oeste 0 -- -- 84
2019-09-25 04:00:00 16.6 18 Oeste 34 Oeste 0 -- -- 79
2019-09-25 03:00:00 16.6 16 Oeste 29 Oeste 0 -- -- 80
2019-09-25 02:00:00 16.9 17 Oeste 33 Oeste 0 -- -- 86
2019-09-25 01:00:00 16.7 24 Oeste 39 Oeste 0 -- -- 84
2019-09-25 00:00:00 17.2 23 Oeste 36 Oeste 0 -- -- 88
2019-09-24 23:00:00 17.5 19 Oeste 45 Oeste 0 -- -- 87
2019-09-24 22:00:00 17.8 22 Noroeste 49 Noroeste 0 -- -- 83
2019-09-24 21:00:00 17.3 19 Oeste 37 Oeste 0 -- -- 84
2019-09-24 20:00:00 17.5 23 Oeste 41 Oeste 0 -- -- 83
2019-09-24 19:00:00 18.4 24 Oeste 40 Oeste 0 -- -- 82
2019-09-24 18:00:00 18.4 19 Oeste 42 Oeste 0 -- -- 81
2019-09-24 17:00:00 18.2 16 Noroeste 40 Noroeste 0 -- -- 83
2019-09-24 16:00:00 19.4 22 Oeste 41 Noroeste 0 -- -- 83
2019-09-24 15:00:00 18.5 26 Noroeste 53 Noroeste 0 -- -- 85
2019-09-24 14:00:00 19.2 19 Noroeste 45 Noroeste 0 -- -- 81
2019-09-24 13:00:00 18.7 24 Noroeste 45 Noroeste 0 -- -- 83
2019-09-24 12:00:00 17.7 24 Noroeste 42 Noroeste 0 -- -- 88
2019-09-24 11:00:00 22.8 18 Oeste 39 Oeste 0 -- -- 94
2019-09-24 10:00:00 16.9 23 Oeste 59 Noroeste 0 -- -- 92
2019-09-24 09:00:00 17.9 32 Noroeste 69 Noroeste 0 -- -- 90
2019-09-24 08:00:00 20.7 5 Oeste 15 Sudoeste 0 -- -- 85
2019-09-24 07:00:00 19.7 10 Sudoeste 19 Sudoeste 0.1 -- -- 86
2019-09-24 06:00:00 19.2 10 Oeste 32 Oeste 0.3 -- -- 88
2019-09-24 05:00:00 20.8 17 Oeste 36 Oeste 0 -- -- 76
2019-09-24 04:00:00 21.4 18 Oeste 66 Oeste 0 -- -- 72
2019-09-24 03:00:00 20.8 10 Oeste 18 Noroeste 0 -- -- 74
2019-09-24 02:00:00 21.3 7 Sur 17 Sur 0 -- -- 69
2019-09-24 01:00:00 20.4 9 Sudoeste 15 Sur 0 -- -- 76
2019-09-24 00:00:00 18.3 11 Sudeste 19 Este 0 -- -- 91
2019-09-23 23:00:00 17.6 13 Sudeste 24 Sudeste 0 -- -- 91
2019-09-23 22:00:00 17.8 19 Sudeste 27 Sudeste 0 -- -- 92
2019-09-23 21:00:00 17.3 18 Sudeste 26 Sudeste 0.3 -- -- 92
2019-09-23 20:00:00 17.6 7 Sudeste 21 Sudeste 1.1 -- -- 91
2019-09-23 19:00:00 17.2 17 Sudeste 24 Sudeste 0.7 -- -- 90
2019-09-23 18:00:00 16.1 14 Sudeste 19 Sudeste 0.5 -- -- 90
2019-09-23 17:00:00 19.6 10 Sudeste 13 Sudeste 0.8 -- -- 91
2019-09-23 16:00:00 17.8 9 Sudeste 18 Este 0.1 -- -- 86
2019-09-23 15:00:00 18 7 Este 15 Sudeste 0 -- -- 85
2019-09-23 14:00:00 19.5 8 Este 15 Este 0 -- -- 72
2019-09-23 13:00:00 20.6 10 Sudeste 15 Este 0 -- -- 64
2019-09-23 12:00:00 19.8 4 Sudeste 17 Sudeste 0 -- -- 68
2019-09-23 11:00:00 17.7 4 Sudeste 15 Sudoeste 0 -- -- 76
2019-09-23 10:00:00 16 10 Sur 14 Sur 0 -- -- 82
2019-09-23 09:00:00 16 4 Sur 17 Sudeste 0 -- -- 83
2019-09-23 08:00:00 16.3 4 Sur 12 Sur 0 -- -- 86
2019-09-23 07:00:00 16.5 3 Sur 8 Sur 0 -- -- 86
2019-09-23 06:00:00 16.2 4 Oeste 12 Sur 0 -- -- 87
2019-09-23 05:00:00 16.8 6 Sur 15 Sudoeste 0 -- -- 86
2019-09-23 04:00:00 16.7 7 Sur 15 Sur 0 -- -- 87
2019-09-23 03:00:00 15.6 4 Sur 11 Sudoeste 0 -- -- 88
2019-09-23 02:00:00 16.1 5 Sudeste 12 Sudeste 0 -- -- 90
2019-09-23 01:00:00 15.7 6 Sur 13 Sur 0 -- -- 90
2019-09-23 00:00:00 15.8 8 Sudoeste 13 Sudoeste 0 -- -- 90
2019-09-22 23:00:00 15.1 12 Sudoeste 15 Sudoeste 0 -- -- 88
2019-09-22 22:00:00 16.2 12 Sudoeste 18 Sudoeste 0 -- -- 89
2019-09-22 21:00:00 16.2 12 Sudoeste 22 Sudoeste 0 -- -- 90
2019-09-22 20:00:00 16 18 Sudoeste 28 Oeste 0 -- -- 90
2019-09-22 19:00:00 16.9 15 Oeste 37 Noroeste 0 -- -- 88
2019-09-22 18:00:00 17.3 24 Noroeste 42 Noroeste 0 -- -- 86
2019-09-22 17:00:00 18.8 22 Noroeste 42 Noroeste 0 -- -- 82
2019-09-22 16:00:00 19.6 17 Noroeste 36 Noroeste 0 -- -- 67
2019-09-22 15:00:00 19.6 17 Oeste 42 Oeste 0 -- -- 66
2019-09-22 14:00:00 19.3 13 Noroeste 36 Oeste 0 -- -- 68
2019-09-22 13:00:00 19.7 25 Oeste 41 Oeste 0 -- -- 62
2019-09-22 12:00:00 19.4 22 Oeste 33 Oeste 0 -- -- 62
2019-09-22 11:00:00 19.4 19 Sudoeste 28 Sudoeste 0 -- -- 59
2019-09-22 10:00:00 17.3 14 Sudoeste 24 Sudoeste 0 -- -- 68
2019-09-22 09:00:00 16.1 13 Oeste 26 Oeste 0 -- -- 81
2019-09-22 08:00:00 15.7 17 Oeste 41 Oeste 0 -- -- 88
2019-09-22 07:00:00 16.6 21 Oeste 39 Oeste 0 -- -- 82
2019-09-22 06:00:00 17.2 24 Oeste 54 Oeste 0 -- -- 76
2019-09-22 05:00:00 16.7 13 Noroeste 39 Oeste 0 -- -- 82
2019-09-22 04:00:00 16.7 16 Oeste 26 Sudoeste 0 -- -- 76
2019-09-22 03:00:00 16.4 15 Oeste 30 Oeste 0 -- -- 83
2019-09-22 02:00:00 16.5 17 Oeste 31 Oeste 0 -- -- 79
2019-09-22 01:00:00 16.5 7 Sudoeste 26 Oeste 0.2 -- -- 83
2019-09-22 00:00:00 15.8 15 Oeste 38 Oeste 3.7 -- -- 88
2019-09-21 23:00:00 16.4 17 Oeste 58 Oeste 1.6 -- -- 90
2019-09-21 22:00:00 15.5 31 Noroeste 66 Noroeste 0 -- -- 93
2019-09-21 21:00:00 17 28 Noroeste 66 Noroeste 0.2 -- -- 92
2019-09-21 20:00:00 20.4 14 Sudoeste 26 Oeste 0 -- -- 78
2019-09-21 19:00:00 21 13 Sudeste 17 Este 0 -- -- 76
2019-09-21 18:00:00 20.5 11 Este 20 Este 0 -- -- 79
2019-09-21 17:00:00 20.7 14 Sudeste 23 Este 0 -- -- 81
2019-09-21 16:00:00 20.9 14 Sudeste 24 Sudeste 0 -- -- 84
2019-09-21 15:00:00 21.3 18 Este 27 Este 0 -- -- 82
2019-09-21 14:00:00 21.5 17 Sudeste 25 Este 0 -- -- 81
2019-09-21 13:00:00 19.5 12 Sudeste 17 Sudeste 0 -- -- 83
2019-09-21 12:00:00 19.2 3 Sur 18 Sudeste 0 -- -- 84
2019-09-21 11:00:00 18.1 15 Sudeste 18 Este 0 -- -- 88
2019-09-21 10:00:00 18.2 8 Sudeste 20 Sudeste 0 -- -- 93
2019-09-21 09:00:00 17.2 17 Este 29 Sudeste 0 -- -- 94
2019-09-21 08:00:00 16.4 21 Sudeste 32 Este 0 -- -- 94
2019-09-21 07:00:00 16.6 7 Sudeste 24 Sudeste 0 -- -- 93
2019-09-21 06:00:00 16.1 16 Sudeste 24 Sudeste 0 -- -- 94
2019-09-21 05:00:00 17.1 0 Calma 8 Sudoeste 0 -- -- 94
2019-09-21 04:00:00 17 0 Calma 7 Noroeste 0 -- -- 94
2019-09-21 03:00:00 17 4 Oeste 9 Oeste 0 -- -- 94
2019-09-21 02:00:00 16.7 2 Oeste 9 Oeste 0 -- -- 94
2019-09-21 01:00:00 16.7 6 Sudoeste 14 Sur 0 -- -- 94
2019-09-21 00:00:00 17.2 5 Sur 23 Sudoeste 0 -- -- 95
2019-09-20 23:00:00 16.5 15 Sudoeste 41 Oeste 0 -- -- 95
2019-09-20 22:00:00 16.2 26 Oeste 44 Oeste 0 -- -- 95
2019-09-20 21:00:00 15.9 31 Oeste 46 Oeste 0 -- -- 95
2019-09-20 20:00:00 15.6 28 Oeste 40 Oeste 0 -- -- 94
2019-09-20 19:00:00 15.9 26 Oeste 42 Oeste 0 -- -- 93
2019-09-20 18:00:00 16.4 18 Oeste 33 Oeste 0 -- -- 93
2019-09-20 17:00:00 16.3 21 Oeste 30 Oeste 0 -- -- 94
2019-09-20 16:00:00 18.4 12 Oeste 19 Oeste 0 -- -- 92
2019-09-20 15:00:00 18.8 14 Oeste 19 Oeste 0 -- -- 90
2019-09-20 14:00:00 19.9 12 Oeste 18 Oeste 0 -- -- 84
2019-09-20 13:00:00 19.7 12 Sudoeste 17 Oeste 0 -- -- 84
2019-09-20 12:00:00 21 5 Este 16 Sudeste 0 -- -- 81
2019-09-20 11:00:00 19.9 15 Sudeste 19 Este 0 -- -- 85
2019-09-20 10:00:00 19.2 12 Sudeste 21 Sudeste 0 -- -- 87
2019-09-20 09:00:00 16.8 18 Sudeste 23 Sudeste 0 -- -- 92
2019-09-20 08:00:00 16.6 15 Sudeste 19 Este 0 -- -- 92
2019-09-20 07:00:00 16.3 15 Sudeste 22 Sudeste 0 -- -- 92
2019-09-20 06:00:00 16.1 13 Sudeste 17 Sudeste 0 -- -- 92
2019-09-20 05:00:00 16.6 11 Sudeste 18 Este 0 -- -- 91
2019-09-20 04:00:00 16.1 11 Sudeste 24 Este 0 -- -- 92
2019-09-20 03:00:00 16.6 16 Sudeste 30 Este 0 -- -- 91
2019-09-20 02:00:00 17.3 19 Sudeste 30 Sudeste 0 -- -- 92
2019-09-20 01:00:00 17.2 17 Este 27 Este 0 -- -- 92
2019-09-20 00:00:00 17.1 15 Este 24 Este 0 -- -- 92
2019-09-19 23:00:00 17.3 12 Este 28 Este 0 -- -- 91
2019-09-19 22:00:00 17.6 14 Este 32 Este 0 -- -- 91
2019-09-19 21:00:00 17.8 19 Este 37 Este 0 -- -- 89
2019-09-19 20:00:00 17.4 18 Este 33 Este 0 -- -- 88
2019-09-19 19:00:00 18.7 15 Este 32 Este 0 -- -- 86
2019-09-19 18:00:00 19.2 16 Este 34 Este 0 -- -- 84
2019-09-19 17:00:00 19.5 15 Este 32 Sudeste 0 -- -- 83
2019-09-19 16:00:00 19.8 16 Sudeste 42 Este 0 -- -- 81
2019-09-19 15:00:00 20 14 Este 27 Este 0 -- -- 81
2019-09-19 14:00:00 19.7 12 Este 28 Este 0 -- -- 84
2019-09-19 13:00:00 20.7 12 Este 17 Este 0 -- -- 84
2019-09-19 12:00:00 20.5 10 Este 16 Este 0 -- -- 82
2019-09-19 11:00:00 20.2 11 Sudeste 15 Sudeste 0 -- -- 86
2019-09-19 10:00:00 19.2 8 Sudeste 11 Sudeste 0 -- -- 92
2019-09-19 09:00:00 17.1 7 Sudeste 15 Sudeste 0 -- -- 92
2019-09-19 08:00:00 17 13 Sudeste 17 Sudeste 0 -- -- 92
2019-09-19 07:00:00 16.8 8 Sudeste 12 Sudeste 0 -- -- 92
2019-09-19 06:00:00 17 11 Sudeste 13 Sudeste 0 -- -- 92
2019-09-19 05:00:00 16.8 8 Este 14 Este 0 -- -- 92
2019-09-19 04:00:00 17 9 Sudeste 15 Sudeste 0 -- -- 92
2019-09-19 03:00:00 17.5 12 Este 18 Sudeste 0 -- -- 91
2019-09-19 02:00:00 18.1 12 Este 27 Este 0 -- -- 91
2019-09-19 01:00:00 18.2 14 Este 29 Este 0 -- -- 90
2019-09-19 00:00:00 18.2 14 Sudeste 31 Sudeste 0 -- -- 90
2019-09-18 23:00:00 18 16 Sudeste 35 Este 0 -- -- 90
2019-09-18 22:00:00 18.4 15 Sudeste 32 Sudeste 0 -- -- 90
2019-09-18 21:00:00 18.6 14 Este 30 Este 0 -- -- 90
2019-09-18 20:00:00 19.1 18 Sudeste 31 Sudeste 0 -- -- 90
2019-09-18 19:00:00 19.5 17 Sudeste 32 Este 0 -- -- 88
2019-09-18 18:00:00 19.3 14 Sudeste 28 Este 0 -- -- 88
2019-09-18 17:00:00 19.6 9 Este 23 Este 0 -- -- 90
2019-09-18 16:00:00 19.7 9 Este 23 Este 0 -- -- 90
2019-09-18 15:00:00 20.4 9 Nordeste 22 Nordeste 0 -- -- 89
2019-09-18 14:00:00 20.6 5 Nordeste 15 Norte 0 -- -- 89
2019-09-18 13:00:00 20.2 5 Norte 9 Norte 0 -- -- 90
2019-09-18 12:00:00 20.2 3 Norte -- -- -- -- -- 92
2019-09-18 11:00:00 -- -- -- -- -- -- -- -- --
2019-09-18 10:00:00 -- -- -- -- -- -- -- -- --
2019-09-18 09:00:00 -- -- -- -- -- -- -- -- --
2019-09-18 08:00:00 -- -- -- -- -- -- -- -- --
2019-09-18 07:00:00 -- -- -- -- -- -- -- -- --
2019-09-18 06:00:00 -- -- -- -- -- -- -- -- --
2019-09-18 05:00:00 -- -- -- -- -- -- -- -- --
2019-09-18 04:00:00 -- -- -- -- -- -- -- -- --
2019-09-18 03:00:00 -- -- -- -- -- -- -- -- --
2019-09-18 02:00:00 -- -- -- -- -- -- -- -- --
2019-09-18 01:00:00 -- -- -- -- -- -- -- -- --
2019-09-18 00:00:00 -- -- -- -- -- -- -- -- --
2019-09-17 23:00:00 -- -- -- -- -- -- -- -- --
2019-09-17 22:00:00 -- -- -- -- -- -- -- -- --
2019-09-17 21:00:00 -- -- -- -- -- -- -- -- --